sensor_id;sensor_type;location;lat;lon;timestamp;pressure;altitude;pressure_sealevel;temperature;humidity
41078;BME280;26823;42.662;23.352;2024-03-02T00:01:53;157911.94;;;6.91;97.33
41078;BME280;26823;42.662;23.352;2024-03-02T00:04:19;157917.28;;;6.93;97.25
41078;BME280;26823;42.662;23.352;2024-03-02T00:06:44;157929.38;;;6.97;97.33
41078;BME280;26823;42.662;23.352;2024-03-02T00:09:11;157909.22;;;6.90;97.24
41078;BME280;26823;42.662;23.352;2024-03-02T00:11:39;157960.28;;;7.09;97.57
41078;BME280;26823;42.662;23.352;2024-03-02T00:14:05;157950.91;;;7.06;97.25
41078;BME280;26823;42.662;23.352;2024-03-02T00:16:31;157976.41;;;7.15;96.85
41078;BME280;26823;42.662;23.352;2024-03-02T00:19:05;157944.19;;;7.03;96.56
41078;BME280;26823;42.662;23.352;2024-03-02T00:21:32;157812.50;;;6.52;97.64
41078;BME280;26823;42.662;23.352;2024-03-02T00:23:58;157870.25;;;6.75;98.88
41078;BME280;26823;42.662;23.352;2024-03-02T00:26:25;157879.66;;;6.78;99.09
41078;BME280;26823;42.662;23.352;2024-03-02T00:28:54;157850.09;;;6.67;99.17
41078;BME280;26823;42.662;23.352;2024-03-02T00:31:22;157809.81;;;6.51;99.72
41078;BME280;26823;42.662;23.352;2024-03-02T00:33:48;157875.66;;;6.77;99.38
41078;BME280;26823;42.662;23.352;2024-03-02T00:36:15;157851.41;;;6.67;99.24
41078;BME280;26823;42.662;23.352;2024-03-02T00:38:50;157782.94;;;6.41;99.82
41078;BME280;26823;42.662;23.352;2024-03-02T00:41:19;157807.09;;;6.50;100.00
41078;BME280;26823;42.662;23.352;2024-03-02T00:43:53;157872.94;;;6.76;99.21
41078;BME280;26823;42.662;23.352;2024-03-02T00:46:22;157848.78;;;6.66;99.62
41078;BME280;26823;42.662;23.352;2024-03-02T00:48:54;157852.78;;;6.68;98.55
41078;BME280;26823;42.662;23.352;2024-03-02T00:51:22;157813.81;;;6.53;98.71
41078;BME280;26823;42.662;23.352;2024-03-02T00:53:48;157895.78;;;6.84;97.78
41078;BME280;26823;42.662;23.352;2024-03-02T00:56:13;157897.13;;;6.85;96.25
41078;BME280;26823;42.662;23.352;2024-03-02T00:58:39;157907.91;;;6.89;96.95
41078;BME280;26823;42.662;23.352;2024-03-02T01:01:05;157933.41;;;6.99;96.26
41078;BME280;26823;42.662;23.352;2024-03-02T01:03:32;157934.78;;;6.99;96.01
41078;BME280;26823;42.662;23.352;2024-03-02T01:05:58;157960.28;;;7.09;96.27
41078;BME280;26823;42.662;23.352;2024-03-02T01:08:24;157987.22;;;7.20;95.75
41078;BME280;26823;42.662;23.352;2024-03-02T01:10:49;157949.53;;;7.05;95.62
41078;BME280;26823;42.662;23.352;2024-03-02T01:13:15;157948.22;;;7.05;95.48
41078;BME280;26823;42.662;23.352;2024-03-02T01:15:40;157964.34;;;7.11;95.60
41078;BME280;26823;42.662;23.352;2024-03-02T01:18:05;157969.69;;;7.13;95.28
41078;BME280;26823;42.662;23.352;2024-03-02T01:20:31;157980.50;;;7.17;95.46
41078;BME280;26823;42.662;23.352;2024-03-02T01:22:56;157967.00;;;7.12;95.44
41078;BME280;26823;42.662;23.352;2024-03-02T01:25:23;157958.97;;;7.09;95.92
41078;BME280;26823;42.662;23.352;2024-03-02T01:27:48;157976.41;;;7.15;96.40
41078;BME280;26823;42.662;23.352;2024-03-02T01:30:14;157991.22;;;7.21;96.49
41078;BME280;26823;42.662;23.352;2024-03-02T01:32:39;157954.94;;;7.07;96.27
41078;BME280;26823;42.662;23.352;2024-03-02T01:35:05;157950.91;;;7.06;97.13
41078;BME280;26823;42.662;23.352;2024-03-02T01:37:32;157958.97;;;7.09;98.00
41078;BME280;26823;42.662;23.352;2024-03-02T01:39:57;157965.69;;;7.11;98.05
41078;BME280;26823;42.662;23.352;2024-03-02T01:42:23;157933.41;;;6.99;97.51
41078;BME280;26823;42.662;23.352;2024-03-02T01:44:48;157950.91;;;7.06;98.39
41078;BME280;26823;42.662;23.352;2024-03-02T01:47:14;157980.50;;;7.17;97.93
41078;BME280;26823;42.662;23.352;2024-03-02T01:49:39;157950.91;;;7.06;96.84
41078;BME280;26823;42.662;23.352;2024-03-02T01:52:06;157872.94;;;6.76;97.97
41078;BME280;26823;42.662;23.352;2024-03-02T01:54:32;157928.06;;;6.97;98.16
41078;BME280;26823;42.662;23.352;2024-03-02T01:56:58;157929.38;;;6.97;97.94
41078;BME280;26823;42.662;23.352;2024-03-02T01:59:24;157925.38;;;6.96;96.99
41078;BME280;26823;42.662;23.352;2024-03-02T02:01:49;157973.78;;;7.14;97.73
41078;BME280;26823;42.662;23.352;2024-03-02T02:04:14;157956.25;;;7.08;98.56
41078;BME280;26823;42.662;23.352;2024-03-02T02:06:40;157950.91;;;7.06;99.11
41078;BME280;26823;42.662;23.352;2024-03-02T02:09:06;157945.53;;;7.04;98.69
41078;BME280;26823;42.662;23.352;2024-03-02T02:11:33;157934.78;;;6.99;100.00
41078;BME280;26823;42.662;23.352;2024-03-02T02:13:59;157898.50;;;6.85;100.00
41078;BME280;26823;42.662;23.352;2024-03-02T02:16:24;157934.78;;;6.99;100.00
41078;BME280;26823;42.662;23.352;2024-03-02T02:18:50;157887.72;;;6.81;100.00
41078;BME280;26823;42.662;23.352;2024-03-02T02:21:15;157852.78;;;6.68;100.00
41078;BME280;26823;42.662;23.352;2024-03-02T02:23:40;157859.50;;;6.71;100.00
41078;BME280;26823;42.662;23.352;2024-03-02T02:26:11;157870.25;;;6.75;100.00
41078;BME280;26823;42.662;23.352;2024-03-02T02:28:37;157870.25;;;6.75;100.00
41078;BME280;26823;42.662;23.352;2024-03-02T02:31:02;157864.91;;;6.73;100.00
41078;BME280;26823;42.662;23.352;2024-03-02T02:33:28;157910.56;;;6.90;100.00
41078;BME280;26823;42.662;23.352;2024-03-02T02:35:54;157932.09;;;6.98;100.00
41078;BME280;26823;42.662;23.352;2024-03-02T02:38:19;157882.38;;;6.79;100.00
41078;BME280;26823;42.662;23.352;2024-03-02T02:40:45;157894.44;;;6.84;100.00
41078;BME280;26823;42.662;23.352;2024-03-02T02:43:10;157930.72;;;6.98;100.00
41078;BME280;26823;42.662;23.352;2024-03-02T02:45:36;157956.25;;;7.08;100.00
41078;BME280;26823;42.662;23.352;2024-03-02T02:48:01;157930.72;;;6.98;100.00
41078;BME280;26823;42.662;23.352;2024-03-02T02:50:28;157913.25;;;6.91;100.00
41078;BME280;26823;42.662;23.352;2024-03-02T02:52:53;157913.25;;;6.91;100.00
41078;BME280;26823;42.662;23.352;2024-03-02T02:55:19;157922.66;;;6.95;100.00
41078;BME280;26823;42.662;23.352;2024-03-02T02:57:44;157917.28;;;6.93;100.00
41078;BME280;26823;42.662;23.352;2024-03-02T03:00:13;157917.28;;;6.93;100.00
41078;BME280;26823;42.662;23.352;2024-03-02T03:02:45;157957.63;;;7.08;100.00
41078;BME280;26823;42.662;23.352;2024-03-02T03:05:13;157989.84;;;7.21;98.96
41078;BME280;26823;42.662;23.352;2024-03-02T03:07:40;157987.22;;;7.20;99.66
41078;BME280;26823;42.662;23.352;2024-03-02T03:10:06;157989.84;;;7.21;99.36
41078;BME280;26823;42.662;23.352;2024-03-02T03:12:32;158016.78;;;7.31;99.14
41078;BME280;26823;42.662;23.352;2024-03-02T03:14:57;158039.59;;;7.40;98.51
41078;BME280;26823;42.662;23.352;2024-03-02T03:17:23;158014.09;;;7.30;98.27
41078;BME280;26823;42.662;23.352;2024-03-02T03:19:49;157997.94;;;7.24;97.87
41078;BME280;26823;42.662;23.352;2024-03-02T03:22:15;157952.25;;;7.06;99.87
41078;BME280;26823;42.662;23.352;2024-03-02T03:24:40;157980.50;;;7.17;100.00
41078;BME280;26823;42.662;23.352;2024-03-02T03:27:06;157937.47;;;7.00;100.00
41078;BME280;26823;42.662;23.352;2024-03-02T03:29:32;157952.25;;;7.06;100.00
41078;BME280;26823;42.662;23.352;2024-03-02T03:31:58;157992.56;;;7.22;100.00
41078;BME280;26823;42.662;23.352;2024-03-02T03:34:32;157938.81;;;7.01;99.96
41078;BME280;26823;42.662;23.352;2024-03-02T03:36:58;157950.91;;;7.06;100.00
41078;BME280;26823;42.662;23.352;2024-03-02T03:39:23;157872.94;;;6.76;100.00
41078;BME280;26823;42.662;23.352;2024-03-02T03:41:48;157914.63;;;6.92;100.00
41078;BME280;26823;42.662;23.352;2024-03-02T03:44:14;157870.25;;;6.75;100.00
41078;BME280;26823;42.662;23.352;2024-03-02T03:46:39;157851.41;;;6.67;100.00
41078;BME280;26823;42.662;23.352;2024-03-02T03:49:05;157842.06;;;6.64;100.00
41078;BME280;26823;42.662;23.352;2024-03-02T03:51:30;157878.34;;;6.78;100.00
41078;BME280;26823;42.662;23.352;2024-03-02T03:53:56;157876.97;;;6.77;100.00
41078;BME280;26823;42.662;23.352;2024-03-02T03:56:21;157856.81;;;6.69;100.00
41078;BME280;26823;42.662;23.352;2024-03-02T03:58:46;157838.00;;;6.62;100.00
41078;BME280;26823;42.662;23.352;2024-03-02T04:01:12;157843.38;;;6.64;100.00
41078;BME280;26823;42.662;23.352;2024-03-02T04:03:38;157883.69;;;6.80;100.00
41078;BME280;26823;42.662;23.352;2024-03-02T04:06:04;157891.78;;;6.83;100.00
41078;BME280;26823;42.662;23.352;2024-03-02T04:08:29;157895.78;;;6.84;100.00
41078;BME280;26823;42.662;23.352;2024-03-02T04:10:54;157915.94;;;6.92;100.00
41078;BME280;26823;42.662;23.352;2024-03-02T04:13:20;157932.09;;;6.98;100.00
41078;BME280;26823;42.662;23.352;2024-03-02T04:15:45;157915.94;;;6.92;100.00
41078;BME280;26823;42.662;23.352;2024-03-02T04:18:11;157938.81;;;7.01;100.00
41078;BME280;26823;42.662;23.352;2024-03-02T04:20:37;157917.28;;;6.93;100.00
41078;BME280;26823;42.662;23.352;2024-03-02T04:23:02;157957.63;;;7.08;100.00
41078;BME280;26823;42.662;23.352;2024-03-02T04:25:28;157991.22;;;7.21;100.00
41078;BME280;26823;42.662;23.352;2024-03-02T04:27:53;158012.72;;;7.29;99.65
41078;BME280;26823;42.662;23.352;2024-03-02T04:30:19;157985.84;;;7.19;100.00
41078;BME280;26823;42.662;23.352;2024-03-02T04:32:44;158023.50;;;7.33;100.00
41078;BME280;26823;42.662;23.352;2024-03-02T04:35:12;158020.81;;;7.32;100.00
41078;BME280;26823;42.662;23.352;2024-03-02T04:37:38;157993.94;;;7.22;99.96
41078;BME280;26823;42.662;23.352;2024-03-02T04:40:04;158047.69;;;7.43;99.37
41078;BME280;26823;42.662;23.352;2024-03-02T04:42:33;158074.56;;;7.53;98.77
41078;BME280;26823;42.662;23.352;2024-03-02T04:44:58;158092.03;;;7.60;98.98
41078;BME280;26823;42.662;23.352;2024-03-02T04:47:24;158102.84;;;7.64;99.13
41078;BME280;26823;42.662;23.352;2024-03-02T04:49:49;158116.28;;;7.69;99.20
41078;BME280;26823;42.662;23.352;2024-03-02T04:52:16;158128.34;;;7.74;99.33
41078;BME280;26823;42.662;23.352;2024-03-02T04:54:41;158135.06;;;7.76;99.58
41078;BME280;26823;42.662;23.352;2024-03-02T04:57:25;158136.44;;;7.77;99.43
41078;BME280;26823;42.662;23.352;2024-03-02T04:59:51;158114.91;;;7.68;100.00
41078;BME280;26823;42.662;23.352;2024-03-02T05:02:16;158113.59;;;7.68;100.00
41078;BME280;26823;42.662;23.352;2024-03-02T05:04:41;158123.00;;;7.72;100.00
41078;BME280;26823;42.662;23.352;2024-03-02T05:07:07;158131.03;;;7.75;100.00
41078;BME280;26823;42.662;23.352;2024-03-02T05:09:32;158128.34;;;7.74;100.00
41078;BME280;26823;42.662;23.352;2024-03-02T05:11:58;158143.16;;;7.79;100.00
41078;BME280;26823;42.662;23.352;2024-03-02T05:14:36;158151.22;;;7.82;100.00
41078;BME280;26823;42.662;23.352;2024-03-02T05:17:02;158117.59;;;7.70;100.00
41078;BME280;26823;42.662;23.352;2024-03-02T05:19:27;158133.75;;;7.76;100.00
41078;BME280;26823;42.662;23.352;2024-03-02T05:21:53;158141.78;;;7.79;100.00
41078;BME280;26823;42.662;23.352;2024-03-02T05:24:18;158137.78;;;7.77;100.00
41078;BME280;26823;42.662;23.352;2024-03-02T05:26:44;158131.03;;;7.75;100.00
41078;BME280;26823;42.662;23.352;2024-03-02T05:29:10;158148.50;;;7.81;100.00
41078;BME280;26823;42.662;23.352;2024-03-02T05:31:35;158129.72;;;7.74;100.00
41078;BME280;26823;42.662;23.352;2024-03-02T05:34:01;158136.44;;;7.77;100.00
41078;BME280;26823;42.662;23.352;2024-03-02T05:36:26;158128.34;;;7.74;100.00
41078;BME280;26823;42.662;23.352;2024-03-02T05:38:52;158127.03;;;7.73;100.00
41078;BME280;26823;42.662;23.352;2024-03-02T05:41:17;158117.59;;;7.70;100.00
41078;BME280;26823;42.662;23.352;2024-03-02T05:43:43;158129.72;;;7.74;100.00
41078;BME280;26823;42.662;23.352;2024-03-02T05:46:08;158129.72;;;7.74;100.00
41078;BME280;26823;42.662;23.352;2024-03-02T05:48:34;158106.84;;;7.65;100.00
41078;BME280;26823;42.662;23.352;2024-03-02T05:50:59;158054.41;;;7.45;100.00
41078;BME280;26823;42.662;23.352;2024-03-02T05:53:25;158088.00;;;7.58;100.00
41078;BME280;26823;42.662;23.352;2024-03-02T05:55:50;158097.44;;;7.62;100.00
41078;BME280;26823;42.662;23.352;2024-03-02T05:58:20;158106.84;;;7.65;100.00
41078;BME280;26823;42.662;23.352;2024-03-02T06:00:59;158088.00;;;7.58;100.00
41078;BME280;26823;42.662;23.352;2024-03-02T06:03:24;158096.13;;;7.61;100.00
41078;BME280;26823;42.662;23.352;2024-03-02T07:49:55;157910.56;;;6.90;100.00
41078;BME280;26823;42.662;23.352;2024-03-02T07:52:21;157914.63;;;6.92;100.00
41078;BME280;26823;42.662;23.352;2024-03-02T07:54:46;157872.94;;;6.76;100.00
41078;BME280;26823;42.662;23.352;2024-03-02T07:57:12;157918.66;;;6.93;100.00
41078;BME280;26823;42.662;23.352;2024-03-02T07:59:37;157949.53;;;7.05;100.00
41078;BME280;26823;42.662;23.352;2024-03-02T08:02:03;157936.09;;;7.00;100.00
41078;BME280;26823;42.662;23.352;2024-03-02T08:04:28;157983.13;;;7.18;100.00
41078;BME280;26823;42.662;23.352;2024-03-02T08:06:54;158016.78;;;7.31;100.00
41078;BME280;26823;42.662;23.352;2024-03-02T08:09:19;158045.00;;;7.42;100.00
41078;BME280;26823;42.662;23.352;2024-03-02T08:11:45;158062.47;;;7.48;100.00
41078;BME280;26823;42.662;23.352;2024-03-02T08:14:10;158066.53;;;7.50;100.00
41078;BME280;26823;42.662;23.352;2024-03-02T08:16:36;158081.28;;;7.56;100.00
41078;BME280;26823;42.662;23.352;2024-03-02T08:19:01;158075.91;;;7.54;100.00
41078;BME280;26823;42.662;23.352;2024-03-02T08:21:27;158106.84;;;7.65;100.00
41078;BME280;26823;42.662;23.352;2024-03-02T08:23:56;158058.44;;;7.47;100.00
41078;BME280;26823;42.662;23.352;2024-03-02T08:26:22;158108.19;;;7.66;100.00
41078;BME280;26823;42.662;23.352;2024-03-02T08:28:47;158108.19;;;7.66;100.00
41078;BME280;26823;42.662;23.352;2024-03-02T08:31:13;158109.56;;;7.66;100.00
41078;BME280;26823;42.662;23.352;2024-03-02T08:33:39;158108.19;;;7.66;100.00
41078;BME280;26823;42.662;23.352;2024-03-02T08:36:05;158098.75;;;7.62;100.00
41078;BME280;26823;42.662;23.352;2024-03-02T08:38:31;158096.13;;;7.61;100.00
41078;BME280;26823;42.662;23.352;2024-03-02T08:40:57;158128.34;;;7.74;100.00
41078;BME280;26823;42.662;23.352;2024-03-02T08:43:23;158012.72;;;7.29;100.00
41078;BME280;26823;42.662;23.352;2024-03-02T08:45:48;158085.31;;;7.57;100.00
41078;BME280;26823;42.662;23.352;2024-03-02T08:48:14;158125.69;;;7.73;100.00
41078;BME280;26823;42.662;23.352;2024-03-02T08:50:40;158078.59;;;7.55;100.00
41078;BME280;26823;42.662;23.352;2024-03-02T08:53:05;158112.19;;;7.67;100.00
41078;BME280;26823;42.662;23.352;2024-03-02T08:55:31;158128.34;;;7.74;100.00
41078;BME280;26823;42.662;23.352;2024-03-02T08:57:56;158151.22;;;7.82;100.00
41078;BME280;26823;42.662;23.352;2024-03-02T09:00:22;158230.56;;;8.13;100.00
41078;BME280;26823;42.662;23.352;2024-03-02T09:02:48;158231.94;;;8.13;100.00
41078;BME280;26823;42.662;23.352;2024-03-02T09:05:14;158234.66;;;8.14;100.00
41078;BME280;26823;42.662;23.352;2024-03-02T09:07:39;158238.66;;;8.16;100.00
41078;BME280;26823;42.662;23.352;2024-03-02T09:10:05;158192.94;;;7.98;100.00
41078;BME280;26823;42.662;23.352;2024-03-02T09:12:32;158273.63;;;8.29;100.00
41078;BME280;26823;42.662;23.352;2024-03-02T09:14:58;158349.03;;;8.58;100.00
41078;BME280;26823;42.662;23.352;2024-03-02T09:17:24;158396.09;;;8.76;100.00
41078;BME280;26823;42.662;23.352;2024-03-02T09:19:49;158413.63;;;8.83;99.38
41078;BME280;26823;42.662;23.352;2024-03-02T09:22:18;158374.59;;;8.68;98.41
41078;BME280;26823;42.662;23.352;2024-03-02T09:24:44;158420.34;;;8.86;98.25
41078;BME280;26823;42.662;23.352;2024-03-02T09:27:09;158375.94;;;8.69;97.45
41078;BME280;26823;42.662;23.352;2024-03-02T09:29:34;158436.53;;;8.92;97.71
41078;BME280;26823;42.662;23.352;2024-03-02T09:32:00;158345.00;;;8.57;97.32
41078;BME280;26823;42.662;23.352;2024-03-02T09:34:25;158412.25;;;8.82;98.07
41078;BME280;26823;42.662;23.352;2024-03-02T09:36:51;158362.47;;;8.63;97.04
41078;BME280;26823;42.662;23.352;2024-03-02T09:39:18;158396.09;;;8.76;97.56
41078;BME280;26823;42.662;23.352;2024-03-02T09:41:43;158324.81;;;8.49;97.70
41078;BME280;26823;42.662;23.352;2024-03-02T09:44:09;158330.16;;;8.51;98.15
41078;BME280;26823;42.662;23.352;2024-03-02T09:46:35;158336.91;;;8.54;97.97
41078;BME280;26823;42.662;23.352;2024-03-02T09:49:02;158358.44;;;8.62;98.90
41078;BME280;26823;42.662;23.352;2024-03-02T09:51:27;158366.50;;;8.65;100.00
41078;BME280;26823;42.662;23.352;2024-03-02T09:53:55;158384.03;;;8.72;100.00
41078;BME280;26823;42.662;23.352;2024-03-02T09:56:23;158392.09;;;8.75;99.91
41078;BME280;26823;42.662;23.352;2024-03-02T09:58:48;158363.84;;;8.64;99.76
41078;BME280;26823;42.662;23.352;2024-03-02T10:01:14;158389.38;;;8.74;100.00
41078;BME280;26823;42.662;23.352;2024-03-02T10:03:39;158409.56;;;8.81;100.00
41078;BME280;26823;42.662;23.352;2024-03-02T10:06:25;158441.88;;;8.94;100.00
41078;BME280;26823;42.662;23.352;2024-03-02T10:08:51;158460.72;;;9.01;99.88
41078;BME280;26823;42.662;23.352;2024-03-02T10:11:35;158475.50;;;9.07;99.68
41078;BME280;26823;42.662;23.352;2024-03-02T10:14:10;158486.31;;;9.11;99.07
41078;BME280;26823;42.662;23.352;2024-03-02T10:16:37;158459.41;;;9.01;98.67
41078;BME280;26823;42.662;23.352;2024-03-02T10:21:49;158498.41;;;9.16;98.55
41078;BME280;26823;42.662;23.352;2024-03-02T10:24:18;158510.53;;;9.20;99.02
41078;BME280;26823;42.662;23.352;2024-03-02T10:26:43;158497.06;;;9.15;98.82
41078;BME280;26823;42.662;23.352;2024-03-02T10:29:10;158419.00;;;8.85;98.00
41078;BME280;26823;42.662;23.352;2024-03-02T10:31:43;158308.63;;;8.43;99.36
41078;BME280;26823;42.662;23.352;2024-03-02T10:34:10;158355.75;;;8.61;100.00
41078;BME280;26823;42.662;23.352;2024-03-02T10:36:36;158307.28;;;8.42;100.00
41078;BME280;26823;42.662;23.352;2024-03-02T10:39:05;158362.47;;;8.63;100.00
41078;BME280;26823;42.662;23.352;2024-03-02T10:41:35;158384.03;;;8.72;100.00
41078;BME280;26823;42.662;23.352;2024-03-02T10:44:04;158423.06;;;8.87;100.00
41078;BME280;26823;42.662;23.352;2024-03-02T10:46:32;158414.97;;;8.84;100.00
41078;BME280;26823;42.662;23.352;2024-03-02T10:48:59;158424.38;;;8.87;100.00
41078;BME280;26823;42.662;23.352;2024-03-02T10:51:26;158424.38;;;8.87;100.00
41078;BME280;26823;42.662;23.352;2024-03-02T10:53:53;158389.38;;;8.74;100.00
41078;BME280;26823;42.662;23.352;2024-03-02T10:56:28;158345.00;;;8.57;100.00
41078;BME280;26823;42.662;23.352;2024-03-02T11:01:39;158349.03;;;8.58;100.00
41078;BME280;26823;42.662;23.352;2024-03-02T11:04:08;158362.47;;;8.63;100.00
41078;BME280;26823;42.662;23.352;2024-03-02T11:06:34;158349.03;;;8.58;100.00
41078;BME280;26823;42.662;23.352;2024-03-02T11:09:06;158373.22;;;8.68;100.00
41078;BME280;26823;42.662;23.352;2024-03-02T11:11:36;158281.72;;;8.32;100.00
41078;BME280;26823;42.662;23.352;2024-03-02T11:14:04;158234.66;;;8.14;100.00
41078;BME280;26823;42.662;23.352;2024-03-02T11:16:35;158174.09;;;7.91;100.00
41078;BME280;26823;42.662;23.352;2024-03-02T11:19:06;158240.00;;;8.16;100.00
41078;BME280;26823;42.662;23.352;2024-03-02T11:21:35;158235.97;;;8.15;100.00
41078;BME280;26823;42.662;23.352;2024-03-02T11:26:46;158179.47;;;7.93;100.00
41078;BME280;26823;42.662;23.352;2024-03-02T11:32:01;158211.78;;;8.06;100.00
41078;BME280;26823;42.662;23.352;2024-03-02T11:34:31;158233.28;;;8.14;100.00
41078;BME280;26823;42.662;23.352;2024-03-02T11:36:57;158250.75;;;8.21;100.00
41078;BME280;26823;42.662;23.352;2024-03-02T11:39:25;158285.72;;;8.34;100.00
41078;BME280;26823;42.662;23.352;2024-03-02T11:41:51;158304.59;;;8.41;100.00
41078;BME280;26823;42.662;23.352;2024-03-02T11:44:17;158324.81;;;8.49;100.00
41078;BME280;26823;42.662;23.352;2024-03-02T11:46:45;158253.44;;;8.22;100.00
41078;BME280;26823;42.662;23.352;2024-03-02T11:49:14;158171.38;;;7.90;100.00
41078;BME280;26823;42.662;23.352;2024-03-02T11:51:53;158127.03;;;7.73;100.00
41078;BME280;26823;42.662;23.352;2024-03-02T11:54:25;158155.25;;;7.84;100.00
41078;BME280;26823;42.662;23.352;2024-03-02T11:56:53;158114.91;;;7.68;100.00
41078;BME280;26823;42.662;23.352;2024-03-02T11:59:20;158153.91;;;7.83;100.00
41078;BME280;26823;42.662;23.352;2024-03-02T12:01:47;158137.78;;;7.77;100.00
41078;BME280;26823;42.662;23.352;2024-03-02T12:04:13;158162.00;;;7.87;100.00
41078;BME280;26823;42.662;23.352;2024-03-02T12:06:39;158159.31;;;7.86;100.00
41078;BME280;26823;42.662;23.352;2024-03-02T12:09:04;158162.00;;;7.87;100.00
41078;BME280;26823;42.662;23.352;2024-03-02T12:11:30;158176.78;;;7.92;100.00
41078;BME280;26823;42.662;23.352;2024-03-02T12:13:55;158184.81;;;7.95;100.00
41078;BME280;26823;42.662;23.352;2024-03-02T12:16:24;158117.59;;;7.70;100.00
41078;BME280;26823;42.662;23.352;2024-03-02T12:18:54;158230.56;;;8.13;100.00
41078;BME280;26823;42.662;23.352;2024-03-02T12:21:19;158233.28;;;8.14;100.00
41078;BME280;26823;42.662;23.352;2024-03-02T12:23:45;158261.53;;;8.25;100.00
41078;BME280;26823;42.662;23.352;2024-03-02T12:26:11;158314.00;;;8.45;100.00
41078;BME280;26823;42.662;23.352;2024-03-02T12:28:37;158319.41;;;8.47;100.00
41078;BME280;26823;42.662;23.352;2024-03-02T12:31:03;158345.00;;;8.57;100.00
41078;BME280;26823;42.662;23.352;2024-03-02T12:33:28;158358.44;;;8.62;100.00
41078;BME280;26823;42.662;23.352;2024-03-02T12:35:56;158367.88;;;8.65;100.00
41078;BME280;26823;42.662;23.352;2024-03-02T12:38:22;158385.34;;;8.72;100.00
41078;BME280;26823;42.662;23.352;2024-03-02T12:40:51;158416.28;;;8.84;99.45
41078;BME280;26823;42.662;23.352;2024-03-02T12:43:17;158384.03;;;8.72;98.75
41078;BME280;26823;42.662;23.352;2024-03-02T12:45:43;158412.25;;;8.82;99.30
41078;BME280;26823;42.662;23.352;2024-03-02T12:48:08;158412.25;;;8.82;98.45
41078;BME280;26823;42.662;23.352;2024-03-02T12:50:34;158439.16;;;8.93;97.78
41078;BME280;26823;42.662;23.352;2024-03-02T12:52:59;158454.00;;;8.98;97.43
41078;BME280;26823;42.662;23.352;2024-03-02T12:55:31;158449.97;;;8.97;96.99
41078;BME280;26823;42.662;23.352;2024-03-02T12:58:00;158517.25;;;9.23;96.99
41078;BME280;26823;42.662;23.352;2024-03-02T13:00:28;158523.97;;;9.25;96.06
41078;BME280;26823;42.662;23.352;2024-03-02T13:02:56;158533.41;;;9.29;95.02
41078;BME280;26823;42.662;23.352;2024-03-02T13:05:30;158536.13;;;9.30;94.92
41078;BME280;26823;42.662;23.352;2024-03-02T13:07:55;158538.81;;;9.31;94.10
41078;BME280;26823;42.662;23.352;2024-03-02T13:10:21;158513.22;;;9.21;93.37
41078;BME280;26823;42.662;23.352;2024-03-02T13:12:47;158511.84;;;9.21;93.75
41078;BME280;26823;42.662;23.352;2024-03-02T13:15:12;158515.94;;;9.22;94.30
41078;BME280;26823;42.662;23.352;2024-03-02T13:17:38;158518.59;;;9.23;93.37
41078;BME280;26823;42.662;23.352;2024-03-02T13:20:05;158519.97;;;9.24;93.12
41078;BME280;26823;42.662;23.352;2024-03-02T13:22:34;158533.41;;;9.29;93.70
41078;BME280;26823;42.662;23.352;2024-03-02T13:25:00;158575.19;;;9.45;93.68
41078;BME280;26823;42.662;23.352;2024-03-02T13:27:26;158576.50;;;9.45;93.47
41078;BME280;26823;42.662;23.352;2024-03-02T13:29:52;158587.25;;;9.50;93.23
41078;BME280;26823;42.662;23.352;2024-03-02T13:32:17;158576.50;;;9.45;92.47
41078;BME280;26823;42.662;23.352;2024-03-02T13:34:46;158529.41;;;9.27;91.54
41078;BME280;26823;42.662;23.352;2024-03-02T13:37:11;158569.75;;;9.43;91.76
41078;BME280;26823;42.662;23.352;2024-03-02T13:39:36;158595.38;;;9.53;91.96
41078;BME280;26823;42.662;23.352;2024-03-02T13:42:10;158589.97;;;9.51;91.23
41078;BME280;26823;42.662;23.352;2024-03-02T13:44:36;158569.75;;;9.43;90.93
41078;BME280;26823;42.662;23.352;2024-03-02T13:47:02;158576.50;;;9.45;90.52
41078;BME280;26823;42.662;23.352;2024-03-02T13:49:28;158564.38;;;9.41;91.01
41078;BME280;26823;42.662;23.352;2024-03-02T13:52:02;158540.16;;;9.32;91.45
41078;BME280;26823;42.662;23.352;2024-03-02T13:54:30;158556.31;;;9.38;91.56
41078;BME280;26823;42.662;23.352;2024-03-02T13:56:56;158510.53;;;9.20;91.95
41078;BME280;26823;42.662;23.352;2024-03-02T13:59:24;158497.06;;;9.15;91.75
41078;BME280;26823;42.662;23.352;2024-03-02T14:01:50;158534.75;;;9.29;92.30
41078;BME280;26823;42.662;23.352;2024-03-02T14:04:15;158534.75;;;9.29;92.22
41078;BME280;26823;42.662;23.352;2024-03-02T14:06:43;158506.50;;;9.19;92.03
41078;BME280;26823;42.662;23.352;2024-03-02T14:09:08;158502.47;;;9.17;92.51
41078;BME280;26823;42.662;23.352;2024-03-02T14:11:34;158526.69;;;9.26;93.42
41078;BME280;26823;42.662;23.352;2024-03-02T14:13:59;158514.56;;;9.22;93.08
41078;BME280;26823;42.662;23.352;2024-03-02T14:16:25;158541.47;;;9.32;92.81
41078;BME280;26823;42.662;23.352;2024-03-02T14:18:50;158542.84;;;9.33;92.64
41078;BME280;26823;42.662;23.352;2024-03-02T14:21:16;158549.56;;;9.35;92.89
41078;BME280;26823;42.662;23.352;2024-03-02T14:23:41;158545.56;;;9.34;92.53
41078;BME280;26823;42.662;23.352;2024-03-02T14:26:06;158565.75;;;9.41;92.90
41078;BME280;26823;42.662;23.352;2024-03-02T14:28:32;158583.22;;;9.48;93.56
41078;BME280;26823;42.662;23.352;2024-03-02T14:30:57;158573.78;;;9.44;93.10
41078;BME280;26823;42.662;23.352;2024-03-02T14:33:26;158569.75;;;9.43;92.25
41078;BME280;26823;42.662;23.352;2024-03-02T14:35:51;158557.63;;;9.38;92.72
41078;BME280;26823;42.662;23.352;2024-03-02T14:38:17;158567.06;;;9.42;92.15